createdAt,value
2016-12-16T00:00:16.508Z,0
2016-12-16T00:01:17.151Z,0
2016-12-16T00:02:17.159Z,0
2016-12-16T00:03:17.147Z,0
2016-12-16T00:04:16.815Z,0
2016-12-16T00:05:17.139Z,0
2016-12-16T00:06:16.479Z,0
2016-12-16T00:07:16.799Z,0
2016-12-16T00:08:17.127Z,0
2016-12-16T00:09:16.787Z,0
2016-12-16T00:10:16.787Z,0
2016-12-16T00:11:17.116Z,0
2016-12-16T00:12:16.779Z,0
2016-12-16T00:13:16.772Z,0
2016-12-16T00:14:17.099Z,0
2016-12-16T00:15:17.096Z,0
2016-12-16T00:16:16.768Z,0
2016-12-16T00:17:17.092Z,0
2016-12-16T00:18:16.752Z,0
2016-12-16T00:19:16.772Z,0
2016-12-16T00:20:16.740Z,0
2016-12-16T00:21:16.748Z,0
2016-12-16T00:22:17.061Z,0
2016-12-16T00:23:17.068Z,0
2016-12-16T00:24:17.060Z,0
2016-12-16T00:25:17.052Z,0
2016-12-16T00:26:17.049Z,0
2016-12-16T00:27:16.716Z,0
2016-12-16T00:28:17.040Z,0
2016-12-16T00:29:17.072Z,0
2016-12-16T00:30:16.705Z,0
2016-12-16T00:31:16.393Z,0
2016-12-16T00:32:16.692Z,0
2016-12-16T00:33:17.016Z,0
2016-12-16T00:34:16.357Z,0
2016-12-16T00:35:17.013Z,0
2016-12-16T00:36:16.673Z,0
2016-12-16T00:37:16.349Z,0
2016-12-16T00:38:17.005Z,0
2016-12-16T00:39:16.337Z,0
2016-12-16T00:40:16.337Z,0
2016-12-16T00:41:16.662Z,0
2016-12-16T00:42:15.997Z,0
2016-12-16T00:43:16.321Z,0
2016-12-16T00:44:16.644Z,0
2016-12-16T00:45:16.637Z,0
2016-12-16T00:46:16.641Z,0
2016-12-16T00:47:16.953Z,0
2016-12-16T00:48:16.625Z,0
2016-12-16T00:49:16.625Z,0
2016-12-16T00:50:16.946Z,0
2016-12-16T00:51:16.613Z,0
2016-12-16T00:52:16.965Z,0
2016-12-16T00:53:16.602Z,0
2016-12-16T00:54:16.937Z,0
2016-12-16T00:55:16.598Z,0
2016-12-16T00:56:16.954Z,0
2016-12-16T00:57:16.926Z,0
2016-12-16T00:58:16.258Z,0
2016-12-16T00:59:16.585Z,0
2016-12-16T01:00:16.902Z,0
2016-12-16T01:01:16.566Z,0
2016-12-16T01:02:16.578Z,0
2016-12-16T01:03:16.558Z,0
2016-12-16T01:04:16.558Z,0
2016-12-16T01:05:16.230Z,0
2016-12-16T01:06:16.550Z,0
2016-12-16T01:07:16.550Z,0
2016-12-16T01:08:16.547Z,0
2016-12-16T01:09:16.546Z,0
2016-12-16T01:10:16.534Z,0
2016-12-16T01:11:16.210Z,0
2016-12-16T01:12:16.523Z,0
2016-12-16T01:13:16.198Z,0
2016-12-16T01:14:16.194Z,0
2016-12-16T01:15:16.190Z,0
2016-12-16T01:16:16.175Z,0
2016-12-16T01:17:16.178Z,0
2016-12-16T01:18:16.503Z,0
2016-12-16T01:19:16.491Z,0
2016-12-16T01:20:16.519Z,0
2016-12-16T01:21:16.162Z,0
2016-12-16T01:22:16.483Z,0
2016-12-16T01:23:15.827Z,0
2016-12-16T01:24:16.474Z,0
2016-12-16T01:25:16.463Z,0
2016-12-16T01:26:16.787Z,0
2016-12-16T01:27:16.462Z,0
2016-12-16T01:28:16.467Z,0
2016-12-16T01:29:16.463Z,0
2016-12-16T01:30:16.775Z,0
2016-12-16T01:31:16.447Z,0
2016-12-16T01:32:16.443Z,0
2016-12-16T01:33:16.435Z,0
2016-12-16T01:34:16.116Z,0
2016-12-16T01:35:16.755Z,0
2016-12-16T01:36:16.435Z,0
2016-12-16T01:37:16.743Z,0
2016-12-16T01:38:16.419Z,0
2016-12-16T01:39:16.735Z,0
2016-12-16T01:40:16.403Z,0
2016-12-16T01:41:16.079Z,0
2016-12-16T01:42:16.727Z,0
2016-12-16T01:43:16.071Z,0
2016-12-16T01:44:16.395Z,0
2016-12-16T01:45:16.099Z,0
2016-12-16T01:46:16.383Z,0
2016-12-16T01:47:16.047Z,0
2016-12-16T01:48:16.375Z,0
2016-12-16T01:49:16.035Z,0
2016-12-16T01:50:16.363Z,0
2016-12-16T01:51:16.691Z,0
2016-12-16T01:52:16.363Z,0
2016-12-16T01:53:16.351Z,0
2016-12-16T01:54:16.347Z,0
2016-12-16T01:55:16.367Z,0
2016-12-16T01:56:16.335Z,0
2016-12-16T01:57:16.007Z,0
2016-12-16T01:58:16.335Z,0
2016-12-16T01:59:16.327Z,0
2016-12-16T02:00:16.319Z,0
2016-12-16T02:01:15.667Z,0
2016-12-16T02:02:15.659Z,0
2016-12-16T02:03:16.315Z,0
2016-12-16T02:04:16.311Z,0
2016-12-16T02:05:16.632Z,0
2016-12-16T02:06:16.639Z,0
2016-12-16T02:07:16.300Z,0
2016-12-16T02:08:16.626Z,0
2016-12-16T02:09:16.612Z,0
2016-12-16T02:10:16.604Z,0
2016-12-16T02:11:16.308Z,0
2016-12-16T02:12:16.275Z,0
2016-12-16T02:13:16.588Z,0
2016-12-16T02:14:16.264Z,0
2016-12-16T02:15:15.936Z,0
2016-12-16T02:16:16.580Z,0
2016-12-16T02:17:16.584Z,0
2016-12-16T02:18:16.244Z,0
2016-12-16T02:19:16.568Z,0
2016-12-16T02:20:16.564Z,0
2016-12-16T02:21:16.239Z,0
2016-12-16T02:22:15.904Z,0
2016-12-16T02:23:15.908Z,0
2016-12-16T02:24:16.548Z,0
2016-12-16T02:25:16.552Z,0
2016-12-16T02:26:16.540Z,0
2016-12-16T02:27:16.540Z,0
2016-12-16T02:28:16.208Z,0
2016-12-16T02:29:16.196Z,0
2016-12-16T02:30:16.196Z,0
2016-12-16T02:31:16.196Z,0
2016-12-16T02:32:16.513Z,0
2016-12-16T02:33:16.188Z,0
2016-12-16T02:34:16.184Z,0
2016-12-16T02:35:16.196Z,0
2016-12-16T02:36:15.840Z,0
2016-12-16T02:37:16.503Z,0
2016-12-16T02:38:16.164Z,0
2016-12-16T02:39:16.188Z,0
2016-12-16T02:40:16.485Z,0
2016-12-16T02:41:16.477Z,0
2016-12-16T02:42:16.145Z,0
2016-12-16T02:43:16.153Z,0
2016-12-16T02:44:16.465Z,0
2016-12-16T02:45:16.461Z,0
2016-12-16T02:46:16.129Z,0
2016-12-16T02:47:16.125Z,0
2016-12-16T02:48:15.805Z,0
2016-12-16T02:49:15.785Z,0
2016-12-16T02:50:16.473Z,0
2016-12-16T02:51:16.425Z,0
2016-12-16T02:52:16.433Z,0
2016-12-16T02:53:16.101Z,0
2016-12-16T02:54:16.097Z,0
2016-12-16T02:55:15.433Z,0
2016-12-16T02:56:16.085Z,0
2016-12-16T02:57:16.081Z,0
2016-12-16T02:58:16.405Z,0
2016-12-16T02:59:15.741Z,0
2016-12-16T03:00:16.069Z,0
2016-12-16T03:01:15.737Z,0
2016-12-16T03:02:16.066Z,0
2016-12-16T03:03:16.062Z,0
2016-12-16T03:04:15.725Z,0
2016-12-16T03:05:15.722Z,0
2016-12-16T03:06:16.370Z,0
2016-12-16T03:07:16.055Z,0
2016-12-16T03:08:16.034Z,0
2016-12-16T03:09:16.030Z,0
2016-12-16T03:10:16.354Z,0
2016-12-16T03:11:16.025Z,0
2016-12-16T03:12:16.026Z,0
2016-12-16T03:13:16.010Z,0
2016-12-16T03:14:16.345Z,0
2016-12-16T03:15:15.998Z,0
2016-12-16T03:16:16.322Z,0
2016-12-16T03:17:16.322Z,0
2016-12-16T03:18:15.994Z,0
2016-12-16T03:19:15.658Z,0
2016-12-16T03:20:15.986Z,0
2016-12-16T03:21:15.973Z,0
2016-12-16T03:22:15.974Z,0
2016-12-16T03:23:15.966Z,0
2016-12-16T03:24:16.298Z,0
2016-12-16T03:25:15.962Z,0
2016-12-16T03:26:15.958Z,0
2016-12-16T03:27:16.282Z,0
2016-12-16T03:28:16.426Z,0
2016-12-16T03:29:15.943Z,0
2016-12-16T03:30:15.946Z,0
2016-12-16T03:31:15.618Z,0
2016-12-16T03:32:15.626Z,0
2016-12-16T03:33:15.930Z,0
2016-12-16T03:34:15.914Z,0
2016-12-16T03:35:15.259Z,0
2016-12-16T03:36:16.242Z,0
2016-12-16T03:37:16.234Z,0
2016-12-16T03:38:15.586Z,0
2016-12-16T03:39:15.899Z,0
2016-12-16T03:40:16.246Z,0
2016-12-16T03:41:15.890Z,0
2016-12-16T03:42:15.890Z,0
2016-12-16T03:43:15.558Z,0
2016-12-16T03:44:16.211Z,0
2016-12-16T03:45:15.226Z,0
2016-12-16T03:46:16.190Z,0
2016-12-16T03:47:15.866Z,0
2016-12-16T03:48:15.867Z,0
2016-12-16T03:49:15.866Z,0
2016-12-16T03:50:15.851Z,0
2016-12-16T03:51:15.847Z,0
2016-12-16T03:52:16.174Z,0
2016-12-16T03:53:16.166Z,0
2016-12-16T03:54:16.159Z,0
2016-12-16T03:55:15.831Z,0
2016-12-16T03:56:15.827Z,0
2016-12-16T03:57:15.823Z,0
2016-12-16T03:58:15.823Z,0
2016-12-16T03:59:15.839Z,0
2016-12-16T04:00:16.139Z,0
2016-12-16T04:01:15.507Z,0
2016-12-16T04:02:15.807Z,0
2016-12-16T04:03:15.471Z,0
2016-12-16T04:04:15.794Z,0
2016-12-16T04:05:16.107Z,0
2016-12-16T04:06:15.783Z,0
2016-12-16T04:07:15.447Z,0
2016-12-16T04:08:16.103Z,0
2016-12-16T04:09:15.443Z,0
2016-12-16T04:10:15.763Z,0
2016-12-16T04:11:15.447Z,0
2016-12-16T04:12:15.756Z,0
2016-12-16T04:13:15.767Z,0
2016-12-16T04:14:15.431Z,0
2016-12-16T04:15:16.067Z,0
2016-12-16T04:16:15.083Z,0
2016-12-16T04:17:15.399Z,0
2016-12-16T04:18:15.927Z,0
2016-12-16T04:19:16.047Z,0
2016-12-16T04:20:16.051Z,0
2016-12-16T04:21:16.039Z,0
2016-12-16T04:22:15.387Z,0
2016-12-16T04:23:15.371Z,0
2016-12-16T04:24:16.027Z,0
2016-12-16T04:25:15.367Z,0
2016-12-16T04:26:16.023Z,0
2016-12-16T04:27:15.692Z,0
2016-12-16T04:28:15.687Z,0
2016-12-16T04:29:16.004Z,0
2016-12-16T04:30:15.999Z,0
2016-12-16T04:31:16.007Z,0
2016-12-16T04:32:15.340Z,0
2016-12-16T04:33:15.656Z,0
2016-12-16T04:34:15.660Z,0
2016-12-16T04:35:15.655Z,0
2016-12-16T04:36:15.648Z,0
2016-12-16T04:37:15.320Z,0
2016-12-16T04:38:15.315Z,0
2016-12-16T04:39:15.304Z,0
2016-12-16T04:40:15.636Z,0
2016-12-16T04:41:15.956Z,12
2016-12-16T04:42:15.624Z,12
2016-12-16T04:43:15.944Z,0
2016-12-16T04:44:15.616Z,0
2016-12-16T04:45:15.620Z,0
2016-12-16T04:46:15.936Z,0
2016-12-16T04:47:15.276Z,0
2016-12-16T04:48:15.592Z,0
2016-12-16T04:49:15.952Z,0
2016-12-16T04:50:15.908Z,0
2016-12-16T04:51:14.928Z,0
2016-12-16T04:52:15.248Z,0
2016-12-16T04:53:15.580Z,0
2016-12-16T04:54:15.248Z,0
2016-12-16T04:55:15.236Z,12
2016-12-16T04:56:15.229Z,0
2016-12-16T04:57:15.876Z,0
2016-12-16T04:58:15.556Z,0
2016-12-16T04:59:15.540Z,0
2016-12-16T05:00:15.213Z,0
2016-12-16T05:01:15.553Z,0
2016-12-16T05:02:15.529Z,0
2016-12-16T05:03:15.862Z,0
2016-12-16T05:04:15.193Z,0
2016-12-16T05:05:15.521Z,12
2016-12-16T05:06:15.193Z,12
2016-12-16T05:07:15.181Z,0
2016-12-16T05:08:15.181Z,0
2016-12-16T05:09:15.833Z,0
2016-12-16T05:10:15.169Z,0
2016-12-16T05:11:15.829Z,0
2016-12-16T05:12:15.833Z,0
2016-12-16T05:13:15.153Z,0
2016-12-16T05:14:15.477Z,0
2016-12-16T05:15:15.473Z,0
2016-12-16T05:16:15.473Z,0
2016-12-16T05:17:15.465Z,0
2016-12-16T05:18:14.813Z,0
2016-12-16T05:19:15.457Z,0
2016-12-16T05:20:15.122Z,0
2016-12-16T05:21:15.453Z,0
2016-12-16T05:22:15.125Z,0
2016-12-16T05:23:15.441Z,0
2016-12-16T05:24:15.433Z,0
2016-12-16T05:25:15.761Z,0
2016-12-16T05:26:15.101Z,0
2016-12-16T05:27:15.430Z,0
2016-12-16T05:28:15.421Z,0
2016-12-16T05:29:15.765Z,0
2016-12-16T05:30:15.089Z,0
2016-12-16T05:31:15.406Z,0
2016-12-16T05:32:15.734Z,0
2016-12-16T05:33:15.398Z,0
2016-12-16T05:34:14.741Z,0
2016-12-16T05:35:15.386Z,0
2016-12-16T05:36:15.378Z,0
2016-12-16T05:37:15.382Z,0
2016-12-16T05:38:15.038Z,0
2016-12-16T05:39:15.042Z,0
2016-12-16T05:40:15.042Z,0
2016-12-16T05:41:15.362Z,0
2016-12-16T05:42:15.358Z,0
2016-12-16T05:43:15.682Z,0
2016-12-16T05:44:15.359Z,0
2016-12-16T05:45:15.027Z,0
2016-12-16T05:46:15.346Z,0
2016-12-16T05:47:15.014Z,0
2016-12-16T05:48:15.330Z,0
2016-12-16T05:49:15.322Z,0
2016-12-16T05:50:15.639Z,0
2016-12-16T05:51:14.994Z,0
2016-12-16T05:52:15.306Z,0
2016-12-16T05:53:15.306Z,0
2016-12-16T05:54:15.302Z,0
2016-12-16T05:55:15.298Z,0
2016-12-16T05:56:14.963Z,0
2016-12-16T05:57:14.641Z,0
2016-12-16T05:58:15.279Z,0
2016-12-16T05:59:15.274Z,0
2016-12-16T06:00:15.275Z,0
2016-12-16T06:01:15.599Z,0
2016-12-16T06:02:14.939Z,0
2016-12-16T06:03:15.590Z,0
2016-12-16T06:04:14.603Z,0
2016-12-16T06:05:15.255Z,0
2016-12-16T06:06:15.247Z,12
2016-12-16T06:07:15.239Z,12
2016-12-16T06:08:15.239Z,0
2016-12-16T06:09:15.267Z,12
2016-12-16T06:10:15.231Z,12
2016-12-16T06:11:15.555Z,0
2016-12-16T06:12:15.551Z,0
2016-12-16T06:13:14.567Z,0
2016-12-16T06:14:14.887Z,0
2016-12-16T06:15:15.200Z,0
2016-12-16T06:16:15.195Z,0
2016-12-16T06:17:15.200Z,0
2016-12-16T06:18:15.528Z,0
2016-12-16T06:19:15.191Z,0
2016-12-16T06:20:15.520Z,0
2016-12-16T06:21:14.856Z,0
2016-12-16T06:22:15.503Z,12
2016-12-16T06:23:14.524Z,0
2016-12-16T06:24:15.504Z,0
2016-12-16T06:25:14.840Z,0
2016-12-16T06:26:15.160Z,0
2016-12-16T06:27:14.836Z,0
2016-12-16T06:28:15.160Z,0
2016-12-16T06:29:15.148Z,0
2016-12-16T06:30:14.488Z,0
2016-12-16T06:31:15.484Z,0
2016-12-16T06:32:14.816Z,0
2016-12-16T06:33:14.796Z,0
2016-12-16T06:34:14.468Z,0
2016-12-16T06:35:15.460Z,0
2016-12-16T06:36:14.468Z,0
2016-12-16T06:37:15.117Z,0
2016-12-16T06:38:15.096Z,0
2016-12-16T06:39:15.428Z,0
2016-12-16T06:40:14.776Z,4
2016-12-16T06:41:15.097Z,4
2016-12-16T06:42:15.093Z,0
2016-12-16T06:43:15.416Z,0
2016-12-16T06:44:15.080Z,4
2016-12-16T06:45:15.077Z,4
2016-12-16T06:46:14.741Z,4
2016-12-16T06:47:15.389Z,4
2016-12-16T06:48:15.061Z,4
2016-12-16T06:49:15.381Z,4
2016-12-16T06:50:15.381Z,8
2016-12-16T06:51:15.053Z,8
2016-12-16T06:52:14.749Z,4
2016-12-16T06:53:15.377Z,8
2016-12-16T06:54:15.361Z,12
2016-12-16T06:55:15.029Z,8
2016-12-16T06:56:15.033Z,12
2016-12-16T06:57:15.350Z,12
2016-12-16T06:58:14.693Z,12
2016-12-16T06:59:14.689Z,16
2016-12-16T07:00:15.325Z,16
2016-12-16T07:01:14.677Z,20
2016-12-16T07:02:14.674Z,24
2016-12-16T07:03:14.985Z,24
2016-12-16T07:04:14.661Z,28
2016-12-16T07:05:15.314Z,24
2016-12-16T07:06:14.982Z,28
2016-12-16T07:07:14.658Z,28
2016-12-16T07:08:14.974Z,32
2016-12-16T07:09:14.966Z,32
2016-12-16T07:10:14.958Z,36
2016-12-16T07:11:14.982Z,44
2016-12-16T07:12:14.958Z,48
2016-12-16T07:13:15.306Z,48
2016-12-16T07:14:14.942Z,52
2016-12-16T07:15:15.266Z,56
2016-12-16T07:16:15.262Z,76
2016-12-16T07:17:14.599Z,76
2016-12-16T07:18:15.254Z,68
2016-12-16T07:19:14.798Z,72
2016-12-16T07:20:14.931Z,88
2016-12-16T07:21:14.914Z,100
2016-12-16T07:22:14.902Z,104
2016-12-16T07:23:14.582Z,100
2016-12-16T07:24:15.046Z,100
2016-12-16T07:25:14.566Z,104
2016-12-16T07:26:15.218Z,108
2016-12-16T07:27:14.559Z,108
2016-12-16T07:28:15.214Z,112
2016-12-16T07:29:15.198Z,116
2016-12-16T07:30:15.201Z,132
2016-12-16T07:31:14.539Z,136
2016-12-16T07:32:14.535Z,128
2016-12-16T07:33:15.183Z,148
2016-12-16T07:34:14.855Z,152
2016-12-16T07:35:14.547Z,160
2016-12-16T07:36:14.843Z,172
2016-12-16T07:37:14.843Z,168
2016-12-16T07:38:14.179Z,188
2016-12-16T07:39:14.831Z,184
2016-12-16T07:40:15.159Z,188
2016-12-16T07:41:14.827Z,196
2016-12-16T07:42:14.815Z,196
2016-12-16T07:43:14.815Z,208
2016-12-16T07:44:15.131Z,212
2016-12-16T07:45:14.799Z,216
2016-12-16T07:46:14.467Z,220
2016-12-16T07:47:14.799Z,216
2016-12-16T07:48:14.803Z,240
2016-12-16T07:49:15.115Z,260
2016-12-16T07:50:14.127Z,276
2016-12-16T07:51:14.451Z,268
2016-12-16T07:52:15.136Z,276
2016-12-16T07:53:14.767Z,284
2016-12-16T07:54:14.103Z,284
2016-12-16T07:55:15.087Z,296
2016-12-16T07:56:15.087Z,300
2016-12-16T07:57:14.771Z,296
2016-12-16T07:58:14.743Z,304
2016-12-16T07:59:14.728Z,312
2016-12-16T08:00:15.051Z,328
2016-12-16T08:01:14.731Z,336
2016-12-16T08:02:15.051Z,328
2016-12-16T08:03:14.723Z,332
2016-12-16T08:04:14.723Z,352
2016-12-16T08:05:14.712Z,360
2016-12-16T08:06:15.043Z,372
2016-12-16T08:07:14.372Z,380
2016-12-16T08:08:14.711Z,400
2016-12-16T08:09:14.703Z,420
2016-12-16T08:10:14.695Z,436
2016-12-16T08:11:14.691Z,464
2016-12-16T08:12:14.688Z,496
2016-12-16T08:13:14.682Z,520
2016-12-16T08:14:14.344Z,536
2016-12-16T08:15:14.348Z,536
2016-12-16T08:16:14.331Z,536
2016-12-16T08:17:14.663Z,532
2016-12-16T08:18:14.659Z,556
2016-12-16T08:19:14.320Z,596
2016-12-16T08:20:14.644Z,640
2016-12-16T08:21:14.651Z,712
2016-12-16T08:22:14.652Z,732
2016-12-16T08:23:14.672Z,720
2016-12-16T08:24:14.632Z,748
2016-12-16T08:25:14.632Z,736
2016-12-16T08:26:14.299Z,744
2016-12-16T08:27:14.644Z,768
2016-12-16T08:28:14.940Z,784
2016-12-16T08:29:14.936Z,812
2016-12-16T08:30:14.608Z,824
2016-12-16T08:31:14.272Z,820
2016-12-16T08:32:14.932Z,828
2016-12-16T08:33:14.920Z,820
2016-12-16T08:34:14.916Z,808
2016-12-16T08:35:14.912Z,848
2016-12-16T08:36:14.908Z,896
2016-12-16T08:37:14.584Z,932
2016-12-16T08:38:14.240Z,968
2016-12-16T08:39:14.940Z,948
2016-12-16T08:40:14.556Z,940
2016-12-16T08:41:14.232Z,936
2016-12-16T08:42:14.552Z,884
2016-12-16T08:43:14.556Z,872
2016-12-16T08:44:14.546Z,864
2016-12-16T08:45:14.880Z,884
2016-12-16T08:46:14.540Z,900
2016-12-16T08:47:14.544Z,900
2016-12-16T08:48:14.528Z,868
2016-12-16T08:49:14.517Z,872
2016-12-16T08:50:14.513Z,888
2016-12-16T08:51:14.189Z,904
2016-12-16T08:52:14.177Z,912
2016-12-16T08:53:13.845Z,904
2016-12-16T08:54:14.169Z,888
2016-12-16T08:55:14.501Z,880
2016-12-16T08:56:14.173Z,876
2016-12-16T08:57:14.489Z,856
2016-12-16T08:58:13.829Z,872
2016-12-16T08:59:14.809Z,832
2016-12-16T09:00:14.481Z,696
2016-12-16T09:01:14.470Z,792
2016-12-16T09:02:14.473Z,904
2016-12-16T09:03:14.805Z,884
2016-12-16T09:04:14.457Z,804
2016-12-16T09:05:14.454Z,740
2016-12-16T09:06:14.117Z,716
2016-12-16T09:07:14.770Z,748
2016-12-16T09:08:14.769Z,760
2016-12-16T09:09:14.766Z,744
2016-12-16T09:10:14.433Z,740
2016-12-16T09:11:14.437Z,768
2016-12-16T09:12:14.418Z,792
2016-12-16T09:13:14.746Z,800
2016-12-16T09:14:14.410Z,788
2016-12-16T09:15:14.738Z,832
2016-12-16T09:16:14.730Z,876
2016-12-16T09:17:14.729Z,924
2016-12-16T09:18:14.398Z,964
2016-12-16T09:19:14.718Z,988
2016-12-16T09:20:14.073Z,1012
2016-12-16T09:21:14.718Z,1032
2016-12-16T09:22:14.710Z,1064
2016-12-16T09:23:14.378Z,1076
2016-12-16T09:24:14.366Z,1080
2016-12-16T09:25:14.702Z,1092
2016-12-16T09:26:14.370Z,1108
2016-12-16T09:27:14.366Z,1116
2016-12-16T09:28:14.038Z,1100
2016-12-16T09:29:14.830Z,1088
2016-12-16T09:30:14.334Z,1112
2016-12-16T09:31:14.350Z,1132
2016-12-16T09:32:14.334Z,1124
2016-12-16T09:33:14.331Z,1152
2016-12-16T09:34:14.010Z,1200
2016-12-16T09:35:14.003Z,1192
2016-12-16T09:36:14.331Z,1192
2016-12-16T09:37:13.986Z,1228
2016-12-16T09:38:13.982Z,1268
2016-12-16T09:39:14.639Z,1244
2016-12-16T09:40:14.647Z,1236
2016-12-16T09:41:14.299Z,1256
2016-12-16T09:42:14.635Z,1248
2016-12-16T09:43:14.623Z,1220
2016-12-16T09:44:14.435Z,1184
2016-12-16T09:45:14.607Z,1164
2016-12-16T09:46:14.607Z,1136
2016-12-16T09:47:14.283Z,1088
2016-12-16T09:48:13.939Z,1052
2016-12-16T09:49:13.939Z,988
2016-12-16T09:50:14.587Z,952
2016-12-16T09:51:14.587Z,984
2016-12-16T09:52:14.259Z,1052
2016-12-16T09:53:14.271Z,1140
2016-12-16T09:54:14.239Z,1172
2016-12-16T09:55:14.251Z,1168
2016-12-16T09:56:14.571Z,1144
2016-12-16T09:57:13.919Z,1116
2016-12-16T09:58:14.235Z,1128
2016-12-16T09:59:14.549Z,1052
2016-12-16T10:00:14.215Z,932
2016-12-16T10:01:13.895Z,908
2016-12-16T10:02:13.571Z,932
2016-12-16T10:03:13.880Z,932
2016-12-16T10:04:14.515Z,940
2016-12-16T10:05:14.560Z,984
2016-12-16T10:06:14.200Z,1032
2016-12-16T10:07:14.187Z,1116
2016-12-16T10:08:14.192Z,1220
2016-12-16T10:09:14.196Z,1292
2016-12-16T10:10:13.859Z,1336
2016-12-16T10:11:13.884Z,1400
2016-12-16T10:12:14.500Z,1432
2016-12-16T10:13:13.843Z,1456
2016-12-16T10:14:14.164Z,1500
2016-12-16T10:15:14.164Z,1540
2016-12-16T10:16:14.160Z,1544
2016-12-16T10:17:14.164Z,1568
2016-12-16T10:18:14.152Z,1520
2016-12-16T10:19:14.475Z,1316
2016-12-16T10:20:13.816Z,1260
2016-12-16T10:21:14.468Z,1360
2016-12-16T10:22:14.140Z,1416
2016-12-16T10:23:14.144Z,1420
2016-12-16T10:24:14.284Z,1340
2016-12-16T10:25:14.456Z,1364
2016-12-16T10:26:13.799Z,1440
2016-12-16T10:27:14.120Z,1456
2016-12-16T10:28:14.440Z,1488
2016-12-16T10:29:14.580Z,1564
2016-12-16T10:30:14.101Z,1632
2016-12-16T10:31:14.428Z,1684
2016-12-16T10:32:14.104Z,1668
2016-12-16T10:33:14.092Z,1564
2016-12-16T10:34:14.084Z,1560
2016-12-16T10:35:14.088Z,1604
2016-12-16T10:36:14.080Z,1632
2016-12-16T10:37:14.408Z,1624
2016-12-16T10:38:14.096Z,1616
2016-12-16T10:39:14.072Z,1612
2016-12-16T10:40:13.740Z,1620
2016-12-16T10:41:14.056Z,1640
2016-12-16T10:42:14.060Z,1660
2016-12-16T10:43:13.727Z,1680
2016-12-16T10:44:14.368Z,1732
2016-12-16T10:45:14.052Z,1804
2016-12-16T10:46:14.364Z,1816
2016-12-16T10:47:14.363Z,1840
2016-12-16T10:48:13.703Z,1852
2016-12-16T10:49:14.035Z,1816
2016-12-16T10:50:14.023Z,1796
2016-12-16T10:51:14.355Z,1784
2016-12-16T10:52:14.007Z,1784
2016-12-16T10:53:14.003Z,1752
2016-12-16T10:54:14.003Z,1588
2016-12-16T10:55:14.211Z,1332
2016-12-16T10:56:14.327Z,1404
2016-12-16T10:57:13.670Z,1452
2016-12-16T10:58:13.991Z,1448
2016-12-16T10:59:13.987Z,1508
2016-12-16T11:00:13.984Z,1528
2016-12-16T11:01:14.310Z,1488
2016-12-16T11:02:13.658Z,1520
2016-12-16T11:03:13.986Z,1592
2016-12-16T11:04:13.310Z,1672
2016-12-16T11:05:13.966Z,1752
2016-12-16T11:06:14.314Z,1784
2016-12-16T11:07:14.282Z,1780
2016-12-16T11:08:13.626Z,1748
2016-12-16T11:09:14.278Z,1716
2016-12-16T11:10:13.945Z,1788
2016-12-16T11:11:13.618Z,1896
2016-12-16T11:12:14.263Z,1996
2016-12-16T11:13:14.269Z,2040
2016-12-16T11:14:14.095Z,2048
2016-12-16T11:15:14.254Z,2100
2016-12-16T11:16:14.246Z,2076
2016-12-16T11:17:14.247Z,2048
2016-12-16T11:18:13.919Z,2060
2016-12-16T11:19:13.583Z,1968
2016-12-16T11:20:13.911Z,1928
2016-12-16T11:21:14.235Z,1928
2016-12-16T11:22:13.898Z,1900
2016-12-16T11:23:13.899Z,1920
2016-12-16T11:24:13.567Z,1900
2016-12-16T11:25:14.227Z,1948
2016-12-16T11:26:14.219Z,1996
2016-12-16T11:27:14.215Z,2008
2016-12-16T11:28:14.203Z,1976
2016-12-16T11:29:13.544Z,1936
2016-12-16T11:30:13.871Z,1880
2016-12-16T11:31:13.868Z,1776
2016-12-16T11:32:13.867Z,1716
2016-12-16T11:33:13.544Z,1696
2016-12-16T11:34:13.860Z,1680
2016-12-16T11:35:13.860Z,1628
2016-12-16T11:36:14.180Z,1608
2016-12-16T11:37:14.172Z,1624
2016-12-16T11:38:13.852Z,1648
2016-12-16T11:39:13.840Z,1652
2016-12-16T11:40:14.172Z,1704
2016-12-16T11:41:13.836Z,1760
2016-12-16T11:42:14.156Z,1812
2016-12-16T11:43:13.824Z,1836
2016-12-16T11:44:13.828Z,1856
2016-12-16T11:45:13.824Z,1864
2016-12-16T11:46:13.817Z,1852
2016-12-16T11:47:13.809Z,1824
2016-12-16T11:48:13.805Z,1800
2016-12-16T11:49:13.481Z,1820
2016-12-16T11:50:13.809Z,1844
2016-12-16T11:51:14.145Z,1852
2016-12-16T11:52:13.465Z,1896
2016-12-16T11:53:13.481Z,1972
2016-12-16T11:54:14.125Z,1944
2016-12-16T11:55:13.481Z,1924
2016-12-16T11:56:13.466Z,1944
2016-12-16T11:57:13.784Z,1908
2016-12-16T11:58:13.769Z,1860
2016-12-16T11:59:13.782Z,1848
2016-12-16T12:00:13.798Z,1856
2016-12-16T12:01:13.438Z,1860
2016-12-16T12:02:13.758Z,1860
2016-12-16T12:03:13.750Z,1876
2016-12-16T12:04:13.758Z,1904
2016-12-16T12:05:13.750Z,1940
2016-12-16T12:06:13.419Z,1960
2016-12-16T12:07:13.743Z,2004
2016-12-16T12:08:14.071Z,1968
2016-12-16T12:09:13.406Z,1924
2016-12-16T12:10:13.731Z,1900
2016-12-16T12:11:14.051Z,1888
2016-12-16T12:12:13.727Z,1872
2016-12-16T12:13:14.051Z,1872
2016-12-16T12:14:14.055Z,1860
2016-12-16T12:15:14.191Z,1844
2016-12-16T12:16:14.035Z,1832
2016-12-16T12:17:13.731Z,1832
2016-12-16T12:18:14.035Z,1844
2016-12-16T12:19:14.024Z,1856
2016-12-16T12:20:14.071Z,1872
2016-12-16T12:21:13.688Z,1848
2016-12-16T12:22:13.688Z,1832
2016-12-16T12:23:13.688Z,1836
2016-12-16T12:24:14.012Z,1828
2016-12-16T12:25:13.682Z,1812
2016-12-16T12:26:14.007Z,1804
2016-12-16T12:27:13.676Z,1784
2016-12-16T12:28:13.673Z,1760
2016-12-16T12:29:13.993Z,1720
2016-12-16T12:30:13.715Z,1696
2016-12-16T12:31:13.664Z,1680
2016-12-16T12:32:13.656Z,1668
2016-12-16T12:33:13.332Z,1644
2016-12-16T12:34:13.981Z,1624
2016-12-16T12:35:13.961Z,1604
2016-12-16T12:36:13.973Z,1612
2016-12-16T12:37:13.637Z,1616
2016-12-16T12:38:13.305Z,1596
2016-12-16T12:39:13.954Z,1604
2016-12-16T12:40:13.629Z,1616
2016-12-16T12:41:13.958Z,1628
2016-12-16T12:42:13.297Z,1624
2016-12-16T12:43:13.621Z,1612
2016-12-16T12:44:13.941Z,1568
2016-12-16T12:45:13.994Z,1544
2016-12-16T12:46:13.278Z,1548
2016-12-16T12:47:13.605Z,1564
2016-12-16T12:48:13.618Z,1556
2016-12-16T12:49:13.278Z,1548
2016-12-16T12:50:13.594Z,1556
2016-12-16T12:51:13.590Z,1528
2016-12-16T12:52:13.594Z,1516
2016-12-16T12:53:13.915Z,1512
2016-12-16T12:54:13.907Z,1496
2016-12-16T12:55:13.571Z,1468
2016-12-16T12:56:13.582Z,1464
2016-12-16T12:57:13.899Z,1460
2016-12-16T12:58:13.901Z,1456
2016-12-16T12:59:13.567Z,1448
2016-12-16T13:00:13.897Z,1412
2016-12-16T13:01:13.563Z,1384
2016-12-16T13:02:13.554Z,1396
2016-12-16T13:03:13.547Z,1396
2016-12-16T13:04:13.884Z,1380
2016-12-16T13:05:13.867Z,1384
2016-12-16T13:06:13.863Z,1348
2016-12-16T13:07:13.222Z,1312
2016-12-16T13:08:13.535Z,1296
2016-12-16T13:09:13.531Z,1296
2016-12-16T13:10:13.204Z,1296
2016-12-16T13:11:13.527Z,1288
2016-12-16T13:12:13.524Z,1292
2016-12-16T13:13:13.519Z,1324
2016-12-16T13:14:13.520Z,1352
2016-12-16T13:15:13.516Z,1376
2016-12-16T13:16:13.176Z,1388
2016-12-16T13:17:13.828Z,1380
2016-12-16T13:18:13.504Z,1368
2016-12-16T13:19:13.492Z,1340
2016-12-16T13:20:13.168Z,1304
2016-12-16T13:21:12.836Z,1272
2016-12-16T13:22:13.816Z,1244
2016-12-16T13:23:13.808Z,1208
2016-12-16T13:24:13.508Z,1168
2016-12-16T13:25:13.468Z,1148
2016-12-16T13:26:13.477Z,1128
2016-12-16T13:27:13.793Z,1116
2016-12-16T13:28:13.472Z,1132
2016-12-16T13:29:13.464Z,1148
2016-12-16T13:30:13.468Z,1172
2016-12-16T13:31:13.784Z,1188
2016-12-16T13:32:13.776Z,1184
2016-12-16T13:33:13.445Z,1192
2016-12-16T13:34:13.777Z,1216
2016-12-16T13:35:13.108Z,1204
2016-12-16T13:36:13.764Z,1192
2016-12-16T13:37:13.108Z,1200
2016-12-16T13:38:13.756Z,1212
2016-12-16T13:39:13.432Z,1196
2016-12-16T13:40:13.420Z,1164
2016-12-16T13:41:13.420Z,1144
2016-12-16T13:42:13.744Z,1116
2016-12-16T13:43:13.740Z,1072
2016-12-16T13:44:13.408Z,1052
2016-12-16T13:45:13.092Z,1040
2016-12-16T13:46:13.091Z,1040
2016-12-16T13:47:13.401Z,1020
2016-12-16T13:48:13.392Z,984
2016-12-16T13:49:13.388Z,940
2016-12-16T13:50:13.716Z,904
2016-12-16T13:51:13.713Z,864
2016-12-16T13:52:13.709Z,824
2016-12-16T13:53:13.377Z,800
2016-12-16T13:54:13.700Z,788
2016-12-16T13:55:13.620Z,776
2016-12-16T13:56:13.360Z,772
2016-12-16T13:57:13.704Z,772
2016-12-16T13:58:13.357Z,780
2016-12-16T13:59:13.685Z,780
2016-12-16T14:00:13.733Z,776
2016-12-16T14:01:13.352Z,776
2016-12-16T14:02:13.679Z,768
2016-12-16T14:03:13.676Z,752
2016-12-16T14:04:13.345Z,744
2016-12-16T14:05:13.341Z,736
2016-12-16T14:06:13.004Z,724